Time;durP1;ratioP1;P1;durP2;ratioP2;P2;SDS_P1;SDS_P2;PMS_P1;PMS_P2;Temp;Humidity;BMP_temperature;BMP_pressure;BME280_temperature;BME280_humidity;BME280_pressure;Samples;Min_cycle;Max_cycle;Signal;HPM_P1;HPM_P2
2023/10/19 00:00:48;;;;;;;18.73;9.63;;;;;;;-144.73;100.00;54567.81;4853097;29;20042;-70
2023/10/19 00:03:14;;;;;;;20.80;10.40;;;;;;;-144.73;100.00;54504.16;4854963;29;20034;-69
2023/10/19 00:05:41;;;;;;;18.60;9.68;;;;;;;-144.73;100.00;54530.84;4851012;29;20034;-70
2023/10/19 00:10:39;;;;;;;;;;;;;;;-144.73;100.00;54502.13;4853267;29;20030;-70
2023/10/19 00:13:06;;;;;;;15.57;9.98;;;;;;;-144.73;100.00;54539.06;4829758;29;19958;-70
2023/10/19 00:15:34;;;;;;;19.83;10.32;;;;;;;-144.73;100.00;54539.06;4844069;29;20038;-71
2023/10/19 00:18:08;;;;;;;17.45;10.70;;;;;;;-144.73;100.00;54524.69;4842069;29;20026;-71
2023/10/19 00:20:52;;;;;;;19.90;10.30;;;;;;;-144.73;100.00;54547.28;4827602;29;20034;-71
2023/10/19 00:23:28;;;;;;;21.30;11.63;;;;;;;-144.73;100.00;54508.28;4842494;29;20026;-71
2023/10/19 00:25:59;;;;;;;18.85;11.60;;;;;;;-144.73;100.00;54502.13;4827315;29;20502;-71
2023/10/19 00:28:26;;;;;;;17.98;10.52;;;;;;;-144.73;100.00;54498.00;4827291;29;20022;-71
2023/10/19 00:30:53;;;;;;;23.48;10.35;;;;;;;-144.73;100.00;54508.28;4831524;29;20022;-70
2023/10/19 00:33:21;;;;;;;21.98;11.70;;;;;;;-144.73;100.00;54604.75;4844911;29;20121;-71
2023/10/19 00:36:08;;;;;;;25.30;11.50;;;;;;;-144.73;100.00;54571.91;4833398;29;20044;-69
2023/10/19 00:41:14;;;;;;;20.10;11.35;;;;;;;-144.73;100.00;54514.44;4843217;29;20086;-70
2023/10/19 00:43:43;;;;;;;21.13;11.77;;;;;;;-144.73;100.00;54498.00;4842098;29;20018;-70
2023/10/19 00:48:58;;;;;;;29.92;11.85;;;;;;;-144.73;100.00;54516.47;4841945;29;20040;-70
2023/10/19 00:54:10;;;;;;;27.55;11.52;;;;;;;-144.73;100.00;54514.44;4841924;29;20062;-70
2023/10/19 00:56:37;;;;;;;20.60;12.00;;;;;;;-144.73;100.00;54518.53;4842538;29;20038;-70
2023/10/19 00:59:19;;;;;;;24.00;11.93;;;;;;;-144.73;100.00;54518.53;4843874;29;20030;-71
2023/10/19 01:01:47;;;;;;;19.67;11.48;;;;;;;-144.73;100.00;54489.81;4841664;29;20022;-71
2023/10/19 01:04:15;;;;;;;21.23;11.85;;;;;;;-144.73;100.00;54571.91;4825366;29;20036;-71
2023/10/19 01:06:58;;;;;;;21.00;11.15;;;;;;;-144.73;100.00;54543.16;4825809;29;20086;-70
2023/10/19 01:09:27;;;;;;;23.92;12.32;;;;;;;-144.73;100.00;54522.63;4841480;29;20095;-70
2023/10/19 01:11:52;;;;;;;25.73;11.90;;;;;;;-144.73;100.00;54539.06;4827148;29;20021;-70
2023/10/19 01:14:21;;;;;;;19.05;11.38;;;;;;;-144.73;100.00;54514.44;4821060;29;20106;-71
2023/10/19 01:16:48;;;;;;;22.70;12.48;;;;;;;-144.73;100.00;54473.38;4842870;29;20065;-71
2023/10/19 01:19:13;;;;;;;21.40;11.98;;;;;;;-144.73;100.00;54493.91;4830963;29;20037;-71
2023/10/19 01:21:44;;;;;;;20.73;11.07;;;;;;;-144.73;100.00;54539.06;4843502;29;20045;-70
2023/10/19 01:24:12;;;;;;;20.08;10.88;;;;;;;-144.73;100.00;54510.31;4826973;29;20038;-70
2023/10/19 01:26:38;;;;;;;24.60;11.88;;;;;;;-144.73;100.00;54506.22;4851820;29;20026;-70
2023/10/19 01:29:13;;;;;;;22.23;11.38;;;;;;;-144.73;100.00;54526.75;4842042;29;20178;-70
2023/10/19 01:31:51;;;;;;;24.10;10.77;;;;;;;-144.73;100.00;54465.16;4840231;29;20093;-70
2023/10/19 01:34:19;;;;;;;22.45;11.18;;;;;;;-144.73;100.00;54506.22;4824693;29;20038;-70
2023/10/19 01:36:49;;;;;;;21.45;11.25;;;;;;;-144.73;100.00;54493.91;4840004;29;20030;-70
2023/10/19 01:39:15;;;;;;;21.15;12.02;;;;;;;-144.73;100.00;54498.00;4839538;29;20566;-71
2023/10/19 01:41:42;;;;;;;22.08;11.35;;;;;;;-144.73;100.00;54518.53;4825243;29;20022;-71
2023/10/19 01:44:07;;;;;;;19.25;10.95;;;;;;;-144.73;100.00;54473.38;4824472;29;20090;-71
2023/10/19 01:46:35;;;;;;;18.35;11.07;;;;;;;-144.73;100.00;54555.47;4853538;29;20030;-71
2023/10/19 01:49:02;;;;;;;20.60;11.15;;;;;;;-144.73;100.00;54508.28;4824636;29;20133;-71
2023/10/19 01:51:29;;;;;;;22.40;11.85;;;;;;;-144.73;100.00;54522.63;4844116;29;20082;-71
2023/10/19 01:53:56;;;;;;;23.88;11.82;;;;;;;-144.73;100.00;54539.06;4841933;29;20082;-71
2023/10/19 01:56:22;;;;;;;19.60;11.85;;;;;;;-144.73;100.00;54514.44;4825097;29;20033;-70
2023/10/19 01:58:48;;;;;;;22.45;11.73;;;;;;;-144.73;100.00;54551.38;4839821;29;20086;-70
2023/10/19 02:01:28;;;;;;;20.80;11.88;;;;;;;-144.73;100.00;54522.63;4842407;29;20025;-70
2023/10/19 02:03:58;;;;;;;24.95;11.95;;;;;;;-144.73;100.00;54539.06;4839518;29;20045;-70
2023/10/19 02:06:29;;;;;;;21.27;11.30;;;;;;;-144.73;100.00;54539.06;4840171;29;20033;-71
2023/10/19 02:09:22;;;;;;;26.77;12.00;;;;;;;-144.73;100.00;54506.22;4841986;29;20056;-70
2023/10/19 02:11:52;;;;;;;19.40;11.13;;;;;;;-144.73;100.00;54510.31;4830259;29;20037;-70
2023/10/19 02:14:18;;;;;;;20.85;11.98;;;;;;;-144.73;100.00;54518.53;4848741;29;20061;-71
2023/10/19 02:16:52;;;;;;;21.98;12.23;;;;;;;-144.73;100.00;54530.84;4836728;29;20110;-70
2023/10/19 02:19:22;;;;;;;23.90;11.18;;;;;;;-144.73;100.00;54539.06;4830363;29;20057;-70
2023/10/19 02:21:52;;;;;;;25.13;12.32;;;;;;;-144.73;100.00;54526.75;4851981;29;20478;-71
2023/10/19 02:24:18;;;;;;;22.80;12.75;;;;;;;-144.73;100.00;54530.84;4824688;29;20548;-70
2023/10/19 02:26:46;;;;;;;22.92;11.68;;;;;;;-144.73;100.00;54469.28;4842645;29;20485;-70
2023/10/19 02:29:13;;;;;;;23.23;12.48;;;;;;;-144.73;100.00;54506.22;4840668;29;20034;-70
2023/10/19 02:31:42;;;;;;;25.00;11.55;;;;;;;-144.73;100.00;54524.69;4824383;29;20030;-71
2023/10/19 02:34:10;;;;;;;25.80;13.32;;;;;;;-144.73;100.00;54518.53;4829734;29;20030;-70
2023/10/19 02:36:37;;;;;;;25.88;12.75;;;;;;;-144.73;100.00;54539.06;4852000;29;20026;-70
2023/10/19 02:39:08;;;;;;;24.58;12.60;;;;;;;-144.73;100.00;54510.31;4841443;29;20065;-70
2023/10/19 02:41:37;;;;;;;;;;;;;;;-144.73;100.00;54522.63;4827388;29;20033;-70
2023/10/19 02:46:41;;;;;;;22.90;12.20;;;;;;;-144.73;100.00;54559.59;4841466;29;20028;-71
2023/10/19 02:49:18;;;;;;;20.85;12.20;;;;;;;-144.73;100.00;54530.84;4852073;29;20075;-71
2023/10/19 02:51:44;;;;;;;22.35;11.77;;;;;;;-144.73;100.00;54553.44;4854801;29;20524;-71
2023/10/19 02:54:24;;;;;;;25.23;13.07;;;;;;;-144.73;100.00;54539.06;4845812;29;20037;-71
2023/10/19 02:56:51;;;;;;;26.13;12.68;;;;;;;-144.73;100.00;54514.44;4855428;29;20061;-71
2023/10/19 02:59:22;;;;;;;20.52;12.57;;;;;;;-144.73;100.00;54510.31;4833227;29;20038;-71
2023/10/19 03:01:47;;;;;;;23.65;13.90;;;;;;;-144.73;100.00;54522.63;4846335;29;20085;-72
2023/10/19 03:04:13;;;;;;;21.95;12.93;;;;;;;-144.73;100.00;54514.44;4847215;29;20129;-71
2023/10/19 03:06:40;;;;;;;24.15;12.43;;;;;;;-144.73;100.00;54506.22;4844413;29;20065;-71
2023/10/19 03:09:13;;;;;;;27.27;13.93;;;;;;;-144.73;100.00;54516.47;4843517;29;20034;-71
2023/10/19 03:11:44;;;;;;;24.70;12.63;;;;;;;-144.73;100.00;54516.47;4846075;29;20034;-71
2023/10/19 03:14:11;;;;;;;21.50;10.32;;;;;;;-144.73;100.00;54543.16;4844217;29;20037;-71
2023/10/19 03:16:38;;;;;;;25.92;12.95;;;;;;;-144.73;100.00;54530.84;4862797;29;20022;-71
2023/10/19 03:19:04;;;;;;;29.55;13.35;;;;;;;-144.73;100.00;54571.91;4844352;29;20102;-71
2023/10/19 03:21:34;;;;;;;23.92;12.10;;;;;;;-144.73;100.00;54563.69;4858102;29;20025;-70
2023/10/19 03:24:12;;;;;;;21.70;12.85;;;;;;;-144.73;100.00;54510.31;4826989;29;20051;-70
2023/10/19 03:26:38;;;;;;;22.95;12.13;;;;;;;-144.73;100.00;54514.44;4827619;29;20086;-70
2023/10/19 03:29:14;;;;;;;21.40;11.10;;;;;;;-144.73;100.00;54477.47;4826281;29;20105;-70
2023/10/19 03:31:43;;;;;;;25.35;12.07;;;;;;;-144.73;100.00;54522.63;4838249;29;20041;-71
2023/10/19 03:34:13;;;;;;;23.00;12.65;;;;;;;-144.73;100.00;54506.22;4845352;29;20030;-70
2023/10/19 03:36:39;;;;;;;26.75;12.23;;;;;;;-144.73;100.00;54541.13;4847191;29;20109;-70
2023/10/19 03:39:14;;;;;;;28.10;12.70;;;;;;;-144.73;100.00;54512.38;4851246;29;20038;-70
2023/10/19 03:41:44;;;;;;;20.98;12.13;;;;;;;-144.73;100.00;54498.00;4833858;29;20022;-70
2023/10/19 03:44:15;;;;;;;22.30;12.80;;;;;;;-144.73;100.00;54530.84;4842379;29;20446;-70
2023/10/19 03:46:52;;;;;;;28.45;11.82;;;;;;;-144.73;100.00;54543.16;4848553;29;20018;-70
2023/10/19 03:49:19;;;;;;;24.70;13.93;;;;;;;-144.73;100.00;54518.53;4850449;29;20037;-70
2023/10/19 03:52:19;;;;;;;33.30;15.90;;;;;;;-144.73;100.00;54522.63;4840856;29;20022;-70
2023/10/19 03:54:43;;;;;;;27.65;14.90;;;;;;;-144.73;100.00;54510.31;4829279;29;20038;-72
2023/10/19 03:57:22;;;;;;;32.63;16.13;;;;;;;-144.73;100.00;54510.31;4846249;29;20032;-71
2023/10/19 03:59:50;;;;;;;30.35;14.88;;;;;;;-144.73;100.00;54518.53;4832194;29;20059;-72
2023/10/19 04:02:16;;;;;;;25.40;15.30;;;;;;;-144.73;100.00;54563.69;4826455;29;20367;-72
2023/10/19 04:04:43;;;;;;;31.75;16.98;;;;;;;-144.73;100.00;54518.53;4833939;29;20037;-71
2023/10/19 04:07:21;;;;;;;31.90;16.77;;;;;;;-144.73;100.00;54522.63;4845709;29;20014;-71
2023/10/19 04:12:37;;;;;;;32.42;16.77;;;;;;;-144.73;100.00;54518.53;4850357;29;20057;-73
2023/10/19 04:15:15;;;;;;;36.10;18.55;;;;;;;-144.73;100.00;54539.06;4851607;29;20125;-73
2023/10/19 04:17:45;;;;;;;32.10;18.27;;;;;;;-144.73;100.00;54514.44;4842630;29;20030;-73
2023/10/19 04:22:43;;;;;;;34.63;18.88;;;;;;;-144.73;100.00;54539.06;4849405;29;20025;-73
2023/10/19 04:25:12;;;;;;;34.45;18.13;;;;;;;-144.73;100.00;54547.28;4830849;29;20042;-73
2023/10/19 04:27:42;;;;;;;32.35;19.10;;;;;;;-144.73;100.00;54555.47;4843511;29;20036;-74
2023/10/19 04:30:26;;;;;;;36.55;20.20;;;;;;;-144.73;100.00;54547.28;4852428;29;20038;-74
2023/10/19 04:32:52;;;;;;;34.22;19.55;;;;;;;-144.73;100.00;54567.81;4834569;29;20057;-75
2023/10/19 04:35:22;;;;;;;39.80;21.10;;;;;;;-144.73;100.00;54565.75;4826451;29;20122;-75
2023/10/19 04:37:52;;;;;;;38.13;20.15;;;;;;;-144.73;100.00;54559.59;4839741;29;20057;-75
2023/10/19 04:40:18;;;;;;;42.88;20.20;;;;;;;-144.73;100.00;54539.06;4838891;29;20114;-75
2023/10/19 04:42:44;;;;;;;44.53;21.02;;;;;;;-144.73;100.00;54530.84;4833642;29;20021;-76
2023/10/19 04:45:11;;;;;;;41.53;21.45;;;;;;;-144.73;100.00;54539.06;4833059;29;20125;-76
2023/10/19 04:47:37;;;;;;;43.22;22.65;;;;;;;-144.73;100.00;54514.44;4841745;29;20022;-75
2023/10/19 04:50:06;;;;;;;37.95;19.77;;;;;;;-144.73;100.00;54530.84;4842785;29;20129;-79
2023/10/19 04:52:32;;;;;;;36.78;20.52;;;;;;;-144.73;100.00;54549.31;4830068;29;20034;-76
2023/10/19 04:54:59;;;;;;;42.67;22.42;;;;;;;-144.73;100.00;54530.84;4845467;29;20037;-77
2023/10/19 04:57:25;;;;;;;42.67;21.77;;;;;;;-144.73;100.00;54567.81;4852131;29;20052;-77
2023/10/19 04:59:55;;;;;;;42.03;21.65;;;;;;;-144.73;100.00;54526.75;4834553;29;20041;-76
2023/10/19 05:02:23;;;;;;;41.30;22.65;;;;;;;-144.73;100.00;54539.06;4824624;29;20393;-76
2023/10/19 05:04:51;;;;;;;42.00;20.85;;;;;;;-144.73;100.00;54551.38;4853054;29;20040;-76
2023/10/19 05:07:20;;;;;;;39.92;21.40;;;;;;;-144.73;100.00;54506.22;4842655;29;20125;-77
2023/10/19 05:09:48;;;;;;;36.05;20.38;;;;;;;-144.73;100.00;54539.06;4834283;29;20061;-76
2023/10/19 05:12:14;;;;;;;46.67;21.50;;;;;;;-144.73;100.00;54526.75;4854046;29;20393;-76
2023/10/19 05:14:41;;;;;;;34.80;21.25;;;;;;;-144.73;100.00;54498.00;4849215;29;20038;-75
2023/10/19 05:17:10;;;;;;;46.70;24.58;;;;;;;-144.73;100.00;54522.63;4855169;29;20122;-76
2023/10/19 05:19:37;;;;;;;41.63;22.60;;;;;;;-144.73;100.00;54543.16;4841710;29;20042;-76
2023/10/19 05:22:05;;;;;;;41.33;20.73;;;;;;;-144.73;100.00;54518.53;4831199;29;20026;-75
2023/10/19 05:24:31;;;;;;;50.67;23.52;;;;;;;-144.73;100.00;54555.47;4846289;29;20049;-75
2023/10/19 05:26:56;;;;;;;45.63;26.25;;;;;;;-144.73;100.00;54518.53;4834880;29;20026;-75
2023/10/19 05:29:23;;;;;;;41.63;22.67;;;;;;;-144.73;100.00;54510.31;4830051;29;20049;-75
2023/10/19 05:31:57;;;;;;;46.05;21.20;;;;;;;-144.73;100.00;54522.63;4826596;29;20077;-75
2023/10/19 05:34:24;;;;;;;36.70;22.20;;;;;;;-144.73;100.00;54547.28;4842428;29;20497;-75
2023/10/19 05:36:51;;;;;;;46.22;22.60;;;;;;;-144.73;100.00;54518.53;4835608;29;20095;-75
2023/10/19 05:39:17;;;;;;;48.00;24.40;;;;;;;-144.73;100.00;54580.13;4829103;29;20048;-76
2023/10/19 05:41:43;;;;;;;40.72;21.13;;;;;;;-144.73;100.00;54518.53;4845055;29;20021;-76
2023/10/19 05:44:08;;;;;;;42.78;23.52;;;;;;;-144.73;100.00;54518.53;4833086;29;20033;-75
2023/10/19 05:46:34;;;;;;;45.30;23.77;;;;;;;-144.73;100.00;54543.16;4831897;29;20048;-76
2023/10/19 05:49:01;;;;;;;39.47;21.58;;;;;;;-144.73;100.00;54547.28;4834082;29;20030;-76
2023/10/19 05:51:27;;;;;;;44.28;23.73;;;;;;;-144.73;100.00;54510.31;4833801;29;20033;-75
2023/10/19 05:53:52;;;;;;;43.10;22.52;;;;;;;-144.73;100.00;54563.69;4840817;29;20041;-76
2023/10/19 05:56:20;;;;;;;41.28;21.63;;;;;;;-144.73;100.00;54539.06;4826665;29;20058;-76
2023/10/19 05:58:50;;;;;;;37.42;20.92;;;;;;;-144.73;100.00;54510.31;4858444;29;20044;-76
2023/10/19 06:01:18;;;;;;;45.50;23.60;;;;;;;-144.73;100.00;54555.47;4833377;29;20033;-76
2023/10/19 06:03:44;;;;;;;44.22;23.58;;;;;;;-144.73;100.00;54539.06;4852904;29;20041;-76
2023/10/19 06:06:10;;;;;;;49.35;21.42;;;;;;;-144.73;100.00;54522.63;4860482;29;20046;-76
2023/10/19 06:08:35;;;;;;;37.20;20.38;;;;;;;-144.73;100.00;54559.59;4843365;29;20033;-76
2023/10/19 06:11:01;;;;;;;38.90;20.35;;;;;;;-144.73;100.00;54502.13;4861037;29;20025;-76
2023/10/19 06:13:26;;;;;;;40.45;22.20;;;;;;;-144.73;100.00;54547.28;4838059;29;20037;-76
2023/10/19 06:15:52;;;;;;;43.42;22.38;;;;;;;-144.73;100.00;54569.84;4839450;29;20034;-77
2023/10/19 06:18:17;;;;;;;42.42;21.10;;;;;;;-144.73;100.00;54555.47;4851076;29;20033;-77
2023/10/19 06:20:47;;;;;;;53.90;22.73;;;;;;;-144.73;100.00;54543.16;4828050;29;20049;-78
2023/10/19 06:23:12;;;;;;;39.00;22.92;;;;;;;-144.73;100.00;54541.13;4835769;29;20034;-77
2023/10/19 06:25:38;;;;;;;49.72;22.02;;;;;;;-144.73;100.00;54543.16;4834206;29;20042;-77
2023/10/19 06:28:04;;;;;;;42.80;22.70;;;;;;;-144.73;100.00;54557.53;4849439;29;20030;-77
2023/10/19 06:30:30;;;;;;;40.92;21.48;;;;;;;-144.73;100.00;54578.06;4852617;29;20070;-77
2023/10/19 06:33:03;;;;;;;41.95;21.73;;;;;;;-144.73;100.00;54545.22;4837726;29;20026;-77
2023/10/19 06:35:31;;;;;;;38.88;22.13;;;;;;;-144.73;100.00;54530.84;4853717;29;20059;-77
2023/10/19 06:37:57;;;;;;;44.38;23.42;;;;;;;-144.73;100.00;54596.53;4853455;29;20081;-77
2023/10/19 06:40:23;;;;;;;42.47;21.83;;;;;;;-144.73;100.00;54555.47;4836882;29;20081;-76
2023/10/19 06:42:49;;;;;;;49.15;23.17;;;;;;;-144.73;100.00;54555.47;4846361;29;20617;-70
2023/10/19 06:49:00;;;;;;;41.40;21.70;;;;;;;-144.73;100.00;54551.38;4844067;29;20037;-71
2023/10/19 06:51:26;;;;;;;50.28;20.88;;;;;;;-144.73;100.00;54514.44;4845848;29;20061;-71
2023/10/19 06:53:52;;;;;;;36.33;20.13;;;;;;;-144.73;100.00;54553.44;4855729;29;20066;-72
2023/10/19 06:56:18;;;;;;;37.30;21.02;;;;;;;-144.73;100.00;54588.31;4841882;29;20041;-68
2023/10/19 06:58:44;;;;;;;39.78;22.70;;;;;;;-144.73;100.00;54498.00;4835333;29;20050;-69
2023/10/19 07:01:10;;;;;;;46.42;22.65;;;;;;;-144.73;100.00;54571.91;4859203;29;20385;-69
2023/10/19 07:03:36;;;;;;;43.88;21.85;;;;;;;-144.73;100.00;54543.16;4840416;29;20037;-69
2023/10/19 07:06:02;;;;;;;46.03;22.23;;;;;;;-144.73;100.00;54563.69;4841911;29;20101;-69
2023/10/19 07:08:28;;;;;;;39.33;22.58;;;;;;;-144.73;100.00;54539.06;4850434;29;20026;-70
2023/10/19 07:10:53;;;;;;;42.88;23.67;;;;;;;-144.73;100.00;54539.06;4847702;29;20086;-69
2023/10/19 07:13:20;;;;;;;47.75;22.48;;;;;;;-144.73;100.00;54567.81;4845134;29;20045;-70
2023/10/19 07:15:51;;;;;;;38.67;22.85;;;;;;;-144.73;100.00;54526.75;4853970;29;20042;-72
2023/10/19 07:22:22;;;;;;;44.85;23.30;;;;;;;-144.73;100.00;54571.91;4847419;29;20090;-76
2023/10/19 07:24:48;;;;;;;41.55;23.10;;;;;;;-144.73;100.00;54567.81;4827457;29;20042;-73
2023/10/19 07:27:20;;;;;;;37.85;21.98;;;;;;;-144.73;100.00;54522.63;4838340;29;20087;-74
2023/10/19 07:29:47;;;;;;;46.40;24.40;;;;;;;-144.73;100.00;54545.22;4859305;29;20053;-73
2023/10/19 07:32:16;;;;;;;39.03;22.95;;;;;;;-144.73;100.00;54520.59;4843814;29;20056;-74
2023/10/19 07:34:44;;;;;;;44.85;23.38;;;;;;;-144.73;100.00;54543.16;4843020;29;20041;-74
2023/10/19 07:37:14;;;;;;;35.88;20.25;;;;;;;-144.73;100.00;54530.84;4847930;29;20037;-74
2023/10/19 07:39:56;;;;;;;43.15;22.55;;;;;;;-144.73;100.00;54539.06;4826191;29;20030;-74
2023/10/19 07:42:23;;;;;;;46.25;22.20;;;;;;;-144.73;100.00;54539.06;4837983;29;20093;-75
2023/10/19 07:44:49;;;;;;;43.22;21.70;;;;;;;-144.73;100.00;54573.97;4827065;29;20045;-73
2023/10/19 07:47:15;;;;;;;38.58;22.80;;;;;;;-144.73;100.00;54576.00;4855488;29;20386;-72
2023/10/19 07:49:40;;;;;;;41.83;23.02;;;;;;;-144.73;100.00;54510.31;4843812;29;20525;-72
2023/10/19 07:52:07;;;;;;;42.45;22.67;;;;;;;-144.73;100.00;54567.81;4825236;29;20501;-72
2023/10/19 07:54:34;;;;;;;42.17;24.98;;;;;;;-144.73;100.00;54539.06;4841278;29;20049;-73
2023/10/19 07:57:03;;;;;;;41.50;24.05;;;;;;;-144.73;100.00;54563.69;4841992;29;20490;-73
2023/10/19 07:59:29;;;;;;;47.05;24.25;;;;;;;-144.73;100.00;54559.59;4832725;29;20041;-74
2023/10/19 08:01:54;;;;;;;49.92;26.23;;;;;;;-144.73;100.00;54555.47;4845848;29;20040;-74
2023/10/19 08:04:19;;;;;;;45.45;25.92;;;;;;;-144.73;100.00;54539.06;4842824;29;20073;-74
2023/10/19 08:06:46;;;;;;;44.58;26.73;;;;;;;-144.73;100.00;54530.84;4849438;29;20017;-73
2023/10/19 08:09:12;;;;;;;48.83;25.48;;;;;;;-144.73;100.00;54576.00;4847601;29;20048;-73
2023/10/19 08:11:37;;;;;;;49.00;27.60;;;;;;;-144.73;100.00;54563.69;4852904;29;20022;-73
2023/10/19 08:14:03;;;;;;;43.60;25.38;;;;;;;-144.73;100.00;54547.28;4816917;29;20042;-72
2023/10/19 08:16:30;;;;;;;47.88;25.90;;;;;;;-144.73;100.00;54563.69;4835455;29;20057;-72
2023/10/19 08:18:57;;;;;;;47.33;26.00;;;;;;;-144.73;100.00;54576.00;4820866;29;20030;-72
2023/10/19 08:21:23;;;;;;;42.15;25.30;;;;;;;-144.73;100.00;54514.44;4835295;29;20036;-72
2023/10/19 08:23:48;;;;;;;48.97;25.70;;;;;;;-144.73;100.00;54547.28;4841981;29;20045;-72
2023/10/19 08:26:15;;;;;;;50.35;26.20;;;;;;;-144.73;100.00;54545.22;4843940;29;20041;-72
2023/10/19 08:28:40;;;;;;;44.15;25.25;;;;;;;-144.73;100.00;54549.31;4838101;29;20400;-72
2023/10/19 08:31:10;;;;;;;60.65;27.55;;;;;;;-144.73;100.00;54584.22;4850744;29;20025;-73
2023/10/19 08:33:38;;;;;;;47.85;27.67;;;;;;;-144.73;100.00;54580.13;4820180;29;20425;-72
2023/10/19 08:36:05;;;;;;;57.97;28.20;;;;;;;-144.73;100.00;54502.13;4821688;29;20014;-72
2023/10/19 08:38:30;;;;;;;56.58;27.63;;;;;;;-144.73;100.00;54543.16;4838028;29;20032;-72
2023/10/19 08:40:56;;;;;;;51.42;27.05;;;;;;;-144.73;100.00;54571.91;4838939;29;20113;-72
2023/10/19 08:43:21;;;;;;;46.80;25.38;;;;;;;-144.73;100.00;54551.38;4814482;29;20037;-72
2023/10/19 08:45:47;;;;;;;48.65;26.45;;;;;;;-144.73;100.00;54563.69;4828559;29;20042;-72
2023/10/19 08:48:14;;;;;;;57.00;28.02;;;;;;;-144.73;100.00;54567.81;4821798;29;20140;-73
2023/10/19 08:50:39;;;;;;;52.55;28.40;;;;;;;-144.73;100.00;54561.63;4823677;29;20050;-72
2023/10/19 08:53:14;;;;;;;51.72;28.67;;;;;;;-144.73;100.00;54567.81;4833747;29;20034;-72
2023/10/19 08:55:39;;;;;;;53.20;28.40;;;;;;;-144.73;100.00;54567.81;4843073;29;20037;-72
2023/10/19 08:58:05;;;;;;;54.58;28.65;;;;;;;-144.73;100.00;54567.81;4853035;29;20029;-72
2023/10/19 09:00:46;;;;;;;61.15;32.60;;;;;;;-144.73;100.00;54580.13;4847941;29;20038;-73
2023/10/19 09:03:13;;;;;;;55.35;29.42;;;;;;;-144.73;100.00;54580.13;4843615;29;20030;-73
2023/10/19 09:05:40;;;;;;;54.95;30.60;;;;;;;-144.73;100.00;54584.22;4836307;29;20034;-73
2023/10/19 09:08:06;;;;;;;49.63;27.02;;;;;;;-144.73;100.00;54551.38;4833757;29;20029;-73
2023/10/19 09:10:32;;;;;;;52.83;28.30;;;;;;;-144.73;100.00;54580.13;4853925;29;20097;-72
2023/10/19 09:13:04;;;;;;;45.03;26.77;;;;;;;-144.73;100.00;54547.28;4825440;29;20030;-72
2023/10/19 09:15:32;;;;;;;55.95;29.98;;;;;;;-144.73;100.00;54539.06;4836478;29;20517;-72
2023/10/19 09:18:15;;;;;;;51.45;29.33;;;;;;;-144.73;100.00;54559.59;4836931;29;20371;-72
2023/10/19 09:20:52;;;;;;;45.95;25.25;;;;;;;-144.73;100.00;54545.22;4838263;29;20038;-73
2023/10/19 09:23:20;;;;;;;55.30;28.80;;;;;;;-144.73;100.00;54580.13;4831027;29;20041;-73
2023/10/19 09:25:46;;;;;;;51.10;27.63;;;;;;;-144.73;100.00;54555.47;4839080;29;20489;-73
2023/10/19 09:28:13;;;;;;;63.60;31.30;;;;;;;-144.73;100.00;54543.16;4855990;29;20069;-73
2023/10/19 09:30:40;;;;;;;54.08;28.33;;;;;;;-144.73;100.00;54596.53;4834294;29;20045;-72
2023/10/19 09:33:07;;;;;;;55.95;29.90;;;;;;;-144.73;100.00;54545.22;4833108;29;20034;-72
2023/10/19 09:35:34;;;;;;;51.13;28.30;;;;;;;-144.73;100.00;54563.69;4833171;29;20048;-73
2023/10/19 09:38:00;;;;;;;47.42;27.67;;;;;;;-144.73;100.00;54555.47;4836830;29;20431;-73
2023/10/19 09:40:29;;;;;;;58.08;30.08;;;;;;;-144.73;100.00;54481.59;4841013;29;20046;-73
2023/10/19 09:42:56;;;;;;;76.38;32.40;;;;;;;-144.73;100.00;54530.84;4839592;29;20026;-74
2023/10/19 09:45:27;;;;;;;49.22;28.35;;;;;;;-144.73;100.00;54584.22;4821126;29;20041;-74
2023/10/19 09:47:54;;;;;;;75.03;30.33;;;;;;;-144.73;100.00;54563.69;4817681;29;20105;-75
2023/10/19 09:50:20;;;;;;;61.15;30.45;;;;;;;-144.73;100.00;54584.22;4818041;29;20412;-74
2023/10/19 09:52:46;;;;;;;63.72;29.85;;;;;;;-144.73;100.00;54567.81;4821221;29;20056;-74
2023/10/19 09:55:23;;;;;;;57.95;29.45;;;;;;;-144.73;100.00;54539.06;4833486;29;20045;-74
2023/10/19 09:58:11;;;;;;;51.30;29.48;;;;;;;-144.73;100.00;54596.53;4833344;29;20124;-74
2023/10/19 10:00:38;;;;;;;56.85;28.48;;;;;;;-144.73;100.00;54559.59;4821285;29;20062;-75
2023/10/19 10:03:05;;;;;;;55.25;27.77;;;;;;;-144.73;100.00;54600.63;4835124;29;20040;-74
2023/10/19 10:05:42;;;;;;;48.67;27.77;;;;;;;-144.73;100.00;54596.53;4835767;29;20035;-75
2023/10/19 10:08:17;;;;;;;70.70;27.85;;;;;;;-144.73;100.00;54555.47;4836031;29;20039;-75
2023/10/19 10:10:46;;;;;;;47.20;27.38;;;;;;;-144.73;100.00;54571.91;4833341;29;20442;-74
2023/10/19 10:13:24;;;;;;;53.75;29.45;;;;;;;-144.73;100.00;54588.31;4855410;29;20539;-73
2023/10/19 10:15:53;;;;;;;50.25;26.70;;;;;;;-144.73;100.00;54571.91;4848179;29;20038;-74
2023/10/19 10:18:18;;;;;;;54.10;26.80;;;;;;;-144.73;100.00;54547.28;4847074;29;20030;-74
2023/10/19 10:20:44;;;;;;;56.28;28.17;;;;;;;-144.73;100.00;54555.47;4828039;29;20037;-74
2023/10/19 10:23:24;;;;;;;46.58;24.95;;;;;;;-144.73;100.00;54580.13;4844455;29;20067;-74
2023/10/19 10:25:53;;;;;;;44.08;27.88;;;;;;;-144.73;100.00;54571.91;4833936;29;20050;-75
2023/10/19 10:28:19;;;;;;;39.08;24.77;;;;;;;-144.73;100.00;54602.69;4830094;29;20041;-74
2023/10/19 10:31:07;;;;;;;45.80;24.58;;;;;;;-144.73;100.00;54557.53;4828534;29;20053;-74
2023/10/19 10:33:45;;;;;;;43.95;23.13;;;;;;;-144.73;100.00;54543.16;4828835;29;20033;-74
2023/10/19 10:36:11;;;;;;;45.25;23.85;;;;;;;-144.73;100.00;54547.28;4848920;29;20107;-78
2023/10/19 10:38:40;;;;;;;45.15;24.67;;;;;;;-144.73;100.00;54576.00;4836643;29;20042;-74
2023/10/19 10:41:09;;;;;;;37.47;24.08;;;;;;;-144.73;100.00;54578.06;4841481;29;20034;-74
2023/10/19 10:43:49;;;;;;;40.50;23.13;;;;;;;-144.73;100.00;54551.38;4842172;29;20462;-73
2023/10/19 10:46:15;;;;;;;45.72;25.10;;;;;;;-144.73;100.00;54555.47;4827831;29;20037;-73
2023/10/19 10:48:43;;;;;;;41.95;24.20;;;;;;;-144.73;100.00;54576.00;4848946;29;20473;-74
2023/10/19 10:51:16;;;;;;;40.33;24.63;;;;;;;-144.73;100.00;54571.91;4832041;29;20420;-73
2023/10/19 10:53:42;;;;;;;40.72;23.17;;;;;;;-144.73;100.00;54567.81;4847725;29;20548;-73
2023/10/19 10:56:07;;;;;;;45.35;23.65;;;;;;;-144.73;100.00;54580.13;4837692;29;20061;-72
2023/10/19 10:58:32;;;;;;;42.10;24.08;;;;;;;-144.73;100.00;54543.16;4845483;29;20310;-72
2023/10/19 11:00:58;;;;;;;49.60;23.65;;;;;;;-144.73;100.00;54592.44;4822069;29;20029;-72
2023/10/19 11:03:25;;;;;;;46.45;25.15;;;;;;;-144.73;100.00;54571.91;4829503;29;20121;-72
2023/10/19 11:05:51;;;;;;;45.45;25.33;;;;;;;-144.73;100.00;54539.06;4833760;29;20040;-71
2023/10/19 11:08:17;;;;;;;47.70;27.75;;;;;;;-144.73;100.00;54563.69;4811670;29;20469;-72
2023/10/19 11:10:47;;;;;;;44.20;26.08;;;;;;;-144.73;100.00;54530.84;4838122;29;20094;-71
2023/10/19 11:13:15;;;;;;;53.30;27.58;;;;;;;-144.73;100.00;54573.97;4851166;29;20081;-73
2023/10/19 11:15:53;;;;;;;45.70;24.80;;;;;;;-144.73;100.00;54547.28;4834975;29;20520;-73
2023/10/19 11:18:45;;;;;;;49.28;26.58;;;;;;;-144.73;100.00;54561.63;4840478;29;20454;-73
2023/10/19 11:21:12;;;;;;;45.95;26.05;;;;;;;-144.73;100.00;54592.44;4839706;29;20046;-75
2023/10/19 11:23:45;;;;;;;50.28;29.42;;;;;;;-144.73;100.00;54588.31;4856858;29;20062;-74
2023/10/19 11:26:12;;;;;;;56.08;28.35;;;;;;;-144.73;100.00;54553.44;4853100;29;20037;-74
2023/10/19 11:28:50;;;;;;;51.97;29.65;;;;;;;-144.73;100.00;54565.75;4847708;29;20037;-74